createdAt,value
2017-12-27T00:00:21.210Z,93.51
2017-12-27T00:01:21.196Z,92.76
2017-12-27T00:02:21.187Z,93.51
2017-12-27T00:03:21.175Z,93.46
2017-12-27T00:04:21.163Z,93.46
2017-12-27T00:05:21.148Z,93.80
2017-12-27T00:06:21.139Z,94.04
2017-12-27T00:07:21.129Z,92.80
2017-12-27T00:08:21.116Z,93.18
2017-12-27T00:09:21.104Z,94.23
2017-12-27T00:10:21.113Z,93.37
2017-12-27T00:11:21.079Z,94.13
2017-12-27T00:12:21.071Z,92.85
2017-12-27T00:13:21.059Z,93.84
2017-12-27T00:14:21.047Z,93.61
2017-12-27T00:15:21.033Z,93.32
2017-12-27T00:16:21.025Z,92.33
2017-12-27T00:17:21.013Z,92.85
2017-12-27T00:18:20.996Z,92.47
2017-12-27T00:19:20.988Z,92.19
2017-12-27T00:20:20.986Z,92.57
2017-12-27T00:21:20.966Z,92.47
2017-12-27T00:22:20.957Z,94.27
2017-12-27T00:23:20.944Z,93.42
2017-12-27T00:24:20.932Z,93.42
2017-12-27T00:25:20.921Z,93.99
2017-12-27T00:26:20.909Z,93.42
2017-12-27T00:27:20.898Z,93.99
2017-12-27T00:28:20.884Z,93.23
2017-12-27T00:29:20.878Z,92.19
2017-12-27T00:30:20.864Z,94.18
2017-12-27T00:31:20.853Z,93.80
2017-12-27T00:32:20.838Z,93.42
2017-12-27T00:33:20.836Z,93.51
2017-12-27T00:34:20.818Z,95.45
2017-12-27T00:35:20.810Z,93.99
2017-12-27T00:36:20.800Z,94.04
2017-12-27T00:37:20.807Z,94.51
2017-12-27T00:38:20.774Z,94.13
2017-12-27T00:39:20.760Z,94.32
2017-12-27T00:40:20.747Z,94.32
2017-12-27T00:41:20.740Z,94.32
2017-12-27T00:42:20.729Z,93.37
2017-12-27T00:43:20.720Z,93.18
2017-12-27T00:44:20.705Z,94.13
2017-12-27T00:45:20.695Z,94.60
2017-12-27T00:46:20.683Z,94.32
2017-12-27T00:47:20.666Z,93.94
2017-12-27T00:48:20.660Z,94.79
2017-12-27T00:49:20.643Z,94.79
2017-12-27T00:50:20.638Z,94.70
2017-12-27T00:51:20.625Z,94.51
2017-12-27T00:52:20.614Z,92.52
2017-12-27T00:53:20.602Z,94.23
2017-12-27T00:54:20.588Z,93.27
2017-12-27T00:55:20.580Z,93.56
2017-12-27T00:56:20.576Z,94.13
2017-12-27T00:57:20.554Z,93.56
2017-12-27T00:58:20.547Z,92.90
2017-12-27T00:59:20.537Z,92.80
2017-12-27T01:00:20.520Z,93.75
2017-12-27T01:01:20.508Z,93.18
2017-12-27T01:02:20.502Z,92.52
2017-12-27T01:03:20.489Z,94.70
2017-12-27T01:04:20.475Z,93.56
2017-12-27T01:05:20.467Z,92.99
2017-12-27T01:06:20.528Z,93.18
2017-12-27T01:07:20.441Z,93.46
2017-12-27T01:08:20.439Z,92.80
2017-12-27T01:09:20.420Z,92.90
2017-12-27T01:10:20.409Z,93.27
2017-12-27T01:11:20.425Z,94.42
2017-12-27T01:12:20.388Z,93.56
2017-12-27T01:13:20.376Z,94.42
2017-12-27T01:14:20.368Z,94.23
2017-12-27T01:15:20.355Z,92.90
2017-12-27T01:16:20.343Z,93.75
2017-12-27T01:17:20.329Z,94.89
2017-12-27T01:18:20.321Z,93.75
2017-12-27T01:19:20.307Z,94.51
2017-12-27T01:20:20.294Z,93.56
2017-12-27T01:21:20.290Z,94.60
2017-12-27T01:22:20.272Z,93.65
2017-12-27T01:23:20.265Z,94.13
2017-12-27T01:24:20.253Z,93.56
2017-12-27T01:25:20.243Z,93.56
2017-12-27T01:26:20.229Z,94.04
2017-12-27T01:27:20.218Z,92.99
2017-12-27T01:28:20.208Z,92.71
2017-12-27T01:29:20.196Z,93.18
2017-12-27T01:30:20.193Z,92.14
2017-12-27T01:31:20.173Z,93.56
2017-12-27T01:32:20.160Z,93.75
2017-12-27T01:33:20.150Z,92.76
2017-12-27T01:34:20.138Z,94.32
2017-12-27T01:35:20.132Z,92.61
2017-12-27T01:36:20.118Z,91.47
2017-12-27T01:37:20.107Z,91.85
2017-12-27T01:38:20.096Z,93.56
2017-12-27T01:39:20.082Z,92.52
2017-12-27T01:41:55.372Z,92.33
2017-12-27T01:42:55.321Z,92.94
2017-12-27T01:44:49.288Z,92.42
2017-12-27T01:45:48.909Z,92.85
2017-12-27T01:47:42.625Z,92.23
2017-12-27T01:48:42.585Z,91.62
2017-12-27T01:50:36.171Z,92.52
2017-12-27T01:51:36.181Z,92.47
2017-12-27T01:53:29.739Z,93.70
2017-12-27T01:54:29.716Z,93.42
2017-12-27T01:56:23.271Z,91.38
2017-12-27T01:57:23.253Z,92.57
2017-12-27T01:59:16.910Z,93.56
2017-12-27T02:00:16.880Z,93.56
2017-12-27T02:01:16.849Z,92.14
2017-12-27T02:02:16.839Z,92.57
2017-12-27T02:03:16.831Z,92.09
2017-12-27T02:04:16.822Z,93.80
2017-12-27T02:05:16.809Z,92.47
2017-12-27T02:06:16.799Z,93.80
2017-12-27T02:07:16.783Z,92.94
2017-12-27T02:08:16.774Z,94.04
2017-12-27T02:09:16.784Z,91.43
2017-12-27T02:10:16.754Z,92.76
2017-12-27T02:11:16.745Z,93.70
2017-12-27T02:12:16.728Z,93.42
2017-12-27T02:13:16.717Z,92.90
2017-12-27T02:14:16.708Z,92.52
2017-12-27T02:15:16.704Z,92.85
2017-12-27T02:16:16.685Z,93.27
2017-12-27T02:17:16.671Z,93.32
2017-12-27T02:18:16.661Z,93.18
2017-12-27T02:19:16.648Z,92.71
2017-12-27T02:20:16.640Z,92.90
2017-12-27T02:21:16.626Z,92.66
2017-12-27T02:22:16.622Z,93.13
2017-12-27T02:23:16.604Z,91.81
2017-12-27T02:24:16.592Z,95.31
2017-12-27T02:25:16.581Z,92.42
2017-12-27T02:26:16.586Z,93.37
2017-12-27T02:27:16.559Z,92.80
2017-12-27T02:28:16.547Z,92.04
2017-12-27T02:29:16.536Z,92.52
2017-12-27T02:30:16.524Z,93.70
2017-12-27T02:31:16.513Z,92.94
2017-12-27T02:32:16.504Z,92.38
2017-12-27T02:33:16.490Z,94.13
2017-12-27T02:34:16.479Z,91.38
2017-12-27T02:35:16.469Z,92.38
2017-12-27T02:36:16.455Z,92.28
2017-12-27T02:37:16.450Z,92.85
2017-12-27T02:38:16.433Z,94.18
2017-12-27T02:39:16.427Z,93.46
2017-12-27T02:40:16.411Z,93.56
2017-12-27T02:41:16.398Z,92.85
2017-12-27T02:42:16.391Z,92.42
2017-12-27T02:43:16.377Z,92.90
2017-12-27T02:44:16.368Z,94.13
2017-12-27T02:45:16.355Z,94.04
2017-12-27T02:46:16.344Z,94.23
2017-12-27T02:47:16.332Z,93.46
2017-12-27T02:48:16.324Z,92.90
2017-12-27T02:49:16.309Z,93.94
2017-12-27T02:50:16.298Z,94.42
2017-12-27T02:51:16.291Z,92.04
2017-12-27T02:52:16.272Z,93.27
2017-12-27T02:53:16.266Z,94.13
2017-12-27T02:54:16.256Z,93.56
2017-12-27T02:55:16.243Z,93.56
2017-12-27T02:56:16.234Z,94.60
2017-12-27T02:57:16.222Z,93.37
2017-12-27T02:58:16.207Z,93.56
2017-12-27T02:59:16.193Z,93.46
2017-12-27T03:00:16.183Z,94.89
2017-12-27T03:01:16.174Z,95.07
2017-12-27T03:02:16.165Z,94.79
2017-12-27T03:03:16.152Z,94.13
2017-12-27T03:04:16.140Z,93.84
2017-12-27T03:05:16.131Z,92.52
2017-12-27T03:06:16.121Z,94.13
2017-12-27T03:07:16.102Z,92.61
2017-12-27T03:08:16.097Z,92.80
2017-12-27T03:09:16.081Z,95.26
2017-12-27T03:10:16.080Z,94.13
2017-12-27T03:11:16.061Z,95.26
2017-12-27T03:12:16.051Z,94.98
2017-12-27T03:13:16.044Z,95.93
2017-12-27T03:14:16.027Z,94.32
2017-12-27T03:15:16.016Z,93.94
2017-12-27T03:16:16.004Z,94.04
2017-12-27T03:17:15.996Z,94.98
2017-12-27T03:18:15.985Z,95.17
2017-12-27T03:19:15.974Z,94.42
2017-12-27T03:20:15.961Z,94.60
2017-12-27T03:21:15.948Z,95.26
2017-12-27T03:22:15.939Z,95.93
2017-12-27T03:23:15.926Z,95.36
2017-12-27T03:24:15.919Z,94.70
2017-12-27T03:25:15.907Z,95.45
2017-12-27T03:26:15.895Z,94.79
2017-12-27T03:27:15.884Z,95.65
2017-12-27T03:28:15.873Z,94.60
2017-12-27T03:29:15.864Z,94.04
2017-12-27T03:30:15.855Z,95.07
2017-12-27T03:31:15.840Z,95.55
2017-12-27T03:32:15.828Z,95.26
2017-12-27T03:33:15.822Z,93.84
2017-12-27T03:34:15.805Z,94.89
2017-12-27T03:35:15.836Z,95.26
2017-12-27T03:36:15.782Z,94.32
2017-12-27T03:37:15.773Z,94.70
2017-12-27T03:38:15.767Z,93.75
2017-12-27T03:39:15.752Z,96.59
2017-12-27T03:40:15.741Z,94.98
2017-12-27T03:41:15.732Z,96.17
2017-12-27T03:42:15.717Z,94.27
2017-12-27T03:43:15.708Z,96.36
2017-12-27T03:44:15.695Z,96.03
2017-12-27T03:45:15.681Z,94.56
2017-12-27T03:46:15.674Z,97.02
2017-12-27T03:47:15.667Z,96.83
2017-12-27T03:48:15.652Z,97.12
2017-12-27T03:49:15.649Z,95.31
2017-12-27T03:50:15.625Z,94.84
2017-12-27T03:51:15.616Z,95.22
2017-12-27T03:52:15.608Z,94.46
2017-12-27T03:53:15.599Z,95.31
2017-12-27T03:54:15.590Z,95.50
2017-12-27T03:55:15.573Z,95.79
2017-12-27T03:56:15.563Z,95.31
2017-12-27T03:57:15.548Z,94.74
2017-12-27T03:58:15.546Z,95.69
2017-12-27T03:59:15.532Z,96.08
2017-12-27T04:00:15.526Z,94.93
2017-12-27T04:01:15.509Z,95.50
2017-12-27T04:02:15.507Z,95.31
2017-12-27T04:03:15.487Z,95.79
2017-12-27T04:04:15.476Z,95.50
2017-12-27T04:05:15.483Z,96.92
2017-12-27T04:06:15.466Z,96.36
2017-12-27T04:07:15.443Z,96.36
2017-12-27T04:08:15.433Z,95.12
2017-12-27T04:09:15.421Z,95.31
2017-12-27T04:10:15.409Z,94.08
2017-12-27T04:11:15.406Z,94.46
2017-12-27T04:12:15.386Z,95.31
2017-12-27T04:13:15.378Z,94.93
2017-12-27T04:14:15.370Z,94.93
2017-12-27T04:15:15.354Z,94.27
2017-12-27T04:16:15.350Z,96.45
2017-12-27T04:17:15.335Z,95.12
2017-12-27T04:18:15.348Z,96.08
2017-12-27T04:19:15.312Z,95.31
2017-12-27T04:20:15.300Z,95.98
2017-12-27T04:21:15.296Z,94.56
2017-12-27T04:22:15.277Z,95.12
2017-12-27T04:23:15.276Z,96.45
2017-12-27T04:24:15.258Z,96.26
2017-12-27T04:25:15.260Z,96.17
2017-12-27T04:26:15.234Z,96.26
2017-12-27T04:27:15.225Z,95.03
2017-12-27T04:28:15.217Z,94.84
2017-12-27T04:29:15.207Z,95.50
2017-12-27T04:30:15.193Z,96.26
2017-12-27T04:31:15.183Z,95.31
2017-12-27T04:32:15.171Z,95.31
2017-12-27T04:33:15.156Z,95.41
2017-12-27T04:34:15.150Z,95.69
2017-12-27T04:35:15.140Z,94.27
2017-12-27T04:36:15.127Z,96.45
2017-12-27T04:37:15.115Z,96.36
2017-12-27T04:38:15.110Z,95.12
2017-12-27T04:39:15.095Z,95.50
2017-12-27T04:40:15.079Z,96.08
2017-12-27T04:41:15.075Z,95.12
2017-12-27T04:42:15.063Z,95.88
2017-12-27T04:43:15.055Z,94.46
2017-12-27T04:44:15.042Z,95.12
2017-12-27T04:45:15.029Z,96.64
2017-12-27T04:46:15.021Z,95.60
2017-12-27T04:47:15.006Z,95.03
2017-12-27T04:48:14.998Z,95.12
2017-12-27T04:49:14.987Z,94.18
2017-12-27T04:50:14.976Z,95.12
2017-12-27T04:51:14.965Z,94.65
2017-12-27T04:52:14.954Z,94.27
2017-12-27T04:53:14.942Z,94.93
2017-12-27T04:54:14.943Z,95.50
2017-12-27T04:55:14.921Z,96.73
2017-12-27T04:56:14.914Z,96.08
2017-12-27T04:57:14.900Z,94.84
2017-12-27T04:58:14.891Z,95.69
2017-12-27T04:59:14.879Z,94.65
2017-12-27T05:00:14.875Z,95.50
2017-12-27T05:01:14.854Z,95.50
2017-12-27T05:02:14.849Z,96.26
2017-12-27T05:03:14.881Z,95.79
2017-12-27T05:04:14.825Z,94.27
2017-12-27T05:05:14.815Z,95.41
2017-12-27T05:06:14.810Z,95.50
2017-12-27T05:07:14.796Z,94.56
2017-12-27T05:08:14.782Z,95.41
2017-12-27T05:09:14.770Z,97.40
2017-12-27T05:10:14.759Z,94.93
2017-12-27T05:11:14.751Z,94.93
2017-12-27T05:12:14.743Z,94.65
2017-12-27T05:13:14.730Z,95.41
2017-12-27T05:14:14.716Z,96.73
2017-12-27T05:15:14.708Z,96.55
2017-12-27T05:16:14.694Z,97.21
2017-12-27T05:17:14.685Z,96.26
2017-12-27T05:18:14.680Z,94.93
2017-12-27T05:19:14.665Z,94.37
2017-12-27T05:20:14.654Z,95.60
2017-12-27T05:21:14.644Z,96.26
2017-12-27T05:22:14.629Z,95.31
2017-12-27T05:23:14.617Z,95.60
2017-12-27T05:24:14.612Z,95.69
2017-12-27T05:25:14.599Z,94.84
2017-12-27T05:26:14.590Z,95.98
2017-12-27T05:27:14.578Z,95.50
2017-12-27T05:28:14.564Z,95.50
2017-12-27T05:29:14.570Z,96.73
2017-12-27T05:30:14.548Z,95.69
2017-12-27T05:31:14.534Z,96.55
2017-12-27T05:32:14.522Z,95.88
2017-12-27T05:33:14.515Z,95.88
2017-12-27T05:34:14.503Z,94.84
2017-12-27T05:35:14.496Z,95.88
2017-12-27T05:36:14.496Z,96.64
2017-12-27T05:37:14.473Z,97.02
2017-12-27T05:38:14.456Z,96.92
2017-12-27T05:39:14.449Z,96.17
2017-12-27T05:40:14.440Z,94.46
2017-12-27T05:41:14.429Z,95.69
2017-12-27T05:42:14.418Z,96.17
2017-12-27T05:43:14.407Z,95.31
2017-12-27T05:44:14.391Z,96.08
2017-12-27T05:45:14.386Z,95.31
2017-12-27T05:46:14.378Z,94.74
2017-12-27T05:47:14.366Z,94.18
2017-12-27T05:48:14.354Z,97.59
2017-12-27T05:49:14.343Z,94.56
2017-12-27T05:50:14.332Z,95.69
2017-12-27T05:51:14.317Z,94.65
2017-12-27T05:52:14.317Z,97.02
2017-12-27T05:53:14.302Z,95.50
2017-12-27T05:54:14.293Z,95.50
2017-12-27T05:55:14.282Z,95.69
2017-12-27T05:56:14.261Z,95.98
2017-12-27T05:57:14.258Z,95.79
2017-12-27T05:58:14.244Z,95.50
2017-12-27T05:59:14.234Z,95.03
2017-12-27T06:00:14.225Z,95.22
2017-12-27T06:01:14.214Z,95.50
2017-12-27T06:02:14.204Z,95.31
2017-12-27T06:03:14.193Z,96.45
2017-12-27T06:04:14.185Z,95.41
2017-12-27T06:05:14.172Z,95.88
2017-12-27T06:06:14.160Z,96.08
2017-12-27T06:07:14.152Z,96.17
2017-12-27T06:08:14.138Z,95.79
2017-12-27T06:09:14.128Z,95.41
2017-12-27T06:10:14.119Z,95.12
2017-12-27T06:11:14.108Z,95.60
2017-12-27T06:12:14.096Z,95.03
2017-12-27T06:13:14.083Z,95.88
2017-12-27T06:14:14.077Z,94.18
2017-12-27T06:15:14.062Z,95.79
2017-12-27T06:16:14.056Z,94.93
2017-12-27T06:17:14.043Z,95.22
2017-12-27T06:18:14.033Z,95.12
2017-12-27T06:19:14.021Z,94.56
2017-12-27T06:20:14.006Z,95.22
2017-12-27T06:21:14.006Z,95.12
2017-12-27T06:22:13.993Z,95.79
2017-12-27T06:23:13.979Z,94.65
2017-12-27T06:24:13.967Z,95.41
2017-12-27T06:25:13.956Z,95.41
2017-12-27T06:26:13.947Z,95.17
2017-12-27T06:27:13.936Z,95.12
2017-12-27T06:28:13.925Z,95.12
2017-12-27T06:29:13.968Z,95.17
2017-12-27T06:30:13.906Z,94.18
2017-12-27T06:31:13.894Z,96.45
2017-12-27T06:32:13.881Z,95.69
2017-12-27T06:33:13.871Z,93.13
2017-12-27T06:34:13.859Z,96.36
2017-12-27T06:35:13.850Z,95.31
2017-12-27T06:36:13.852Z,95.60
2017-12-27T06:37:13.829Z,95.03
2017-12-27T06:38:13.827Z,94.93
2017-12-27T06:39:13.808Z,94.65
2017-12-27T06:40:13.797Z,95.50
2017-12-27T06:41:13.794Z,95.22
2017-12-27T06:42:13.774Z,97.12
2017-12-27T06:43:13.772Z,93.61
2017-12-27T06:44:13.753Z,96.36
2017-12-27T06:45:13.743Z,95.69
2017-12-27T06:46:13.732Z,94.74
2017-12-27T06:47:13.723Z,95.69
2017-12-27T06:48:13.710Z,93.99
2017-12-27T06:49:13.699Z,94.84
2017-12-27T06:50:13.689Z,97.02
2017-12-27T06:51:13.678Z,95.41
2017-12-27T06:52:13.669Z,95.41
2017-12-27T06:53:13.652Z,95.31
2017-12-27T06:54:13.647Z,95.12
2017-12-27T06:55:13.642Z,95.31
2017-12-27T06:56:13.625Z,95.69
2017-12-27T06:57:13.613Z,94.93
2017-12-27T06:58:13.605Z,94.65
2017-12-27T06:59:13.590Z,98.16
2017-12-27T07:00:13.580Z,95.31
2017-12-27T07:01:13.567Z,94.93
2017-12-27T07:02:13.557Z,94.74
2017-12-27T07:03:13.550Z,93.99
2017-12-27T07:04:13.538Z,94.46
2017-12-27T07:05:13.525Z,94.84
2017-12-27T07:06:13.514Z,94.84
2017-12-27T07:07:13.503Z,94.37
2017-12-27T07:08:13.510Z,94.65
2017-12-27T07:09:13.484Z,94.84
2017-12-27T07:10:13.471Z,95.22
2017-12-27T07:11:13.461Z,95.79
2017-12-27T07:12:13.456Z,93.89
2017-12-27T07:13:13.441Z,97.21
2017-12-27T07:14:13.427Z,95.41
2017-12-27T07:15:13.418Z,93.99
2017-12-27T07:16:13.406Z,94.37
2017-12-27T07:17:13.393Z,95.79
2017-12-27T07:18:13.383Z,94.84
2017-12-27T07:19:13.373Z,94.18
2017-12-27T07:20:13.364Z,95.03
2017-12-27T07:21:13.352Z,94.93
2017-12-27T07:22:13.340Z,96.73
2017-12-27T07:23:13.333Z,95.50
2017-12-27T07:24:13.318Z,93.23
2017-12-27T07:25:13.308Z,96.55
2017-12-27T07:26:13.298Z,94.93
2017-12-27T07:27:13.283Z,94.37
2017-12-27T07:28:13.275Z,95.50
2017-12-27T07:29:13.264Z,95.41
2017-12-27T07:30:13.257Z,95.41
2017-12-27T07:31:13.243Z,95.03
2017-12-27T07:32:13.231Z,93.80
2017-12-27T07:33:13.221Z,94.74
2017-12-27T07:34:13.207Z,95.79
2017-12-27T07:35:13.199Z,95.50
2017-12-27T07:36:13.186Z,95.31
2017-12-27T07:37:13.177Z,94.84
2017-12-27T07:38:13.163Z,97.12
2017-12-27T07:39:13.154Z,95.50
2017-12-27T07:40:13.143Z,94.46
2017-12-27T07:41:13.132Z,94.18
2017-12-27T07:42:13.121Z,96.64
2017-12-27T07:43:13.109Z,95.88
2017-12-27T07:44:13.100Z,95.69
2017-12-27T07:45:13.086Z,95.74
2017-12-27T07:46:13.079Z,94.93
2017-12-27T07:47:13.066Z,94.23
2017-12-27T07:48:13.052Z,94.89
2017-12-27T07:49:13.045Z,94.37
2017-12-27T07:50:13.034Z,94.37
2017-12-27T07:51:13.021Z,97.21
2017-12-27T07:52:13.013Z,93.99
2017-12-27T07:53:13.003Z,96.08
2017-12-27T07:54:12.990Z,94.70
2017-12-27T07:55:12.980Z,93.99
2017-12-27T07:56:12.968Z,94.93
2017-12-27T07:57:12.957Z,94.27
2017-12-27T07:58:12.956Z,93.99
2017-12-27T07:59:12.934Z,95.41
2017-12-27T08:00:12.925Z,95.41
2017-12-27T08:01:12.911Z,93.99
2017-12-27T08:02:12.916Z,93.99
2017-12-27T08:03:12.893Z,94.37
2017-12-27T08:04:12.880Z,95.12
2017-12-27T08:05:12.869Z,94.08
2017-12-27T08:06:12.888Z,93.61
2017-12-27T08:07:12.845Z,93.61
2017-12-27T08:08:12.836Z,94.65
2017-12-27T08:09:12.829Z,93.41
2017-12-27T08:10:12.818Z,94.18
2017-12-27T08:11:12.804Z,91.80
2017-12-27T08:12:12.795Z,92.47
2017-12-27T08:13:12.780Z,92.57
2017-12-27T08:14:12.777Z,93.04
2017-12-27T08:15:12.761Z,92.28
2017-12-27T08:16:12.749Z,92.57
2017-12-27T08:17:12.745Z,92.47
2017-12-27T08:18:12.731Z,91.24
2017-12-27T08:19:12.715Z,91.90
2017-12-27T08:20:12.705Z,92.57
2017-12-27T08:21:12.694Z,92.47
2017-12-27T08:22:12.684Z,92.57
2017-12-27T08:23:12.672Z,91.90
2017-12-27T08:24:12.663Z,92.76
2017-12-27T08:25:12.651Z,90.76
2017-12-27T08:26:12.640Z,90.95
2017-12-27T08:27:12.630Z,91.42
2017-12-27T08:28:12.619Z,91.52
2017-12-27T08:29:12.606Z,90.48
2017-12-27T08:30:12.599Z,91.24
2017-12-27T08:31:12.583Z,91.52
2017-12-27T08:32:12.581Z,91.61
2017-12-27T08:33:12.565Z,90.67
2017-12-27T08:34:12.555Z,91.52
2017-12-27T08:35:12.541Z,91.99
2017-12-27T08:36:12.533Z,91.61
2017-12-27T08:37:12.530Z,91.05
2017-12-27T08:38:12.509Z,91.05
2017-12-27T08:39:12.495Z,91.14
2017-12-27T08:40:12.488Z,90.48
2017-12-27T08:41:12.475Z,91.33
2017-12-27T08:42:12.465Z,90.86
2017-12-27T08:43:12.456Z,91.71
2017-12-27T08:44:12.442Z,90.76
2017-12-27T08:45:12.431Z,90.38
2017-12-27T08:46:12.424Z,90.19
2017-12-27T08:47:12.411Z,89.91
2017-12-27T08:48:12.400Z,90.57
2017-12-27T08:49:12.393Z,90.00
2017-12-27T08:50:12.377Z,89.25
2017-12-27T08:51:12.368Z,89.53
2017-12-27T08:52:12.357Z,89.91
2017-12-27T08:53:12.347Z,89.62
2017-12-27T08:54:12.330Z,89.81
2017-12-27T08:55:12.324Z,90.76
2017-12-27T08:56:12.316Z,91.99
2017-12-27T08:57:12.303Z,90.76
2017-12-27T08:58:12.292Z,90.00
2017-12-27T08:59:12.282Z,90.76
2017-12-27T09:00:12.269Z,90.57
2017-12-27T09:01:12.260Z,90.38
2017-12-27T09:02:12.247Z,90.19
2017-12-27T09:03:12.237Z,89.72
2017-12-27T09:04:12.232Z,89.81
2017-12-27T09:05:12.217Z,89.53
2017-12-27T09:06:12.205Z,89.91
2017-12-27T09:07:12.196Z,89.91
2017-12-27T09:08:12.186Z,90.00
2017-12-27T09:09:12.174Z,89.25
2017-12-27T09:10:12.164Z,90.19
2017-12-27T09:11:12.150Z,90.76
2017-12-27T09:12:12.142Z,89.81
2017-12-27T09:13:12.132Z,90.29
2017-12-27T09:14:12.120Z,90.67
2017-12-27T09:15:12.126Z,89.81
2017-12-27T09:16:12.100Z,90.48
2017-12-27T09:17:12.090Z,91.33
2017-12-27T09:18:12.079Z,90.48
2017-12-27T09:19:12.064Z,91.80
2017-12-27T09:20:12.055Z,90.57
2017-12-27T09:21:12.046Z,90.86
2017-12-27T09:22:12.036Z,90.86
2017-12-27T09:23:12.025Z,91.52
2017-12-27T09:24:12.013Z,89.91
2017-12-27T09:25:12.004Z,92.09
2017-12-27T09:26:11.989Z,90.62
2017-12-27T09:27:11.978Z,91.05
2017-12-27T09:28:11.975Z,91.24
2017-12-27T09:29:11.960Z,90.38
2017-12-27T09:30:11.947Z,90.90
2017-12-27T09:31:11.959Z,91.14
2017-12-27T09:32:11.930Z,90.38
2017-12-27T09:33:11.915Z,91.28
2017-12-27T09:34:11.908Z,91.38
2017-12-27T09:35:11.897Z,91.00
2017-12-27T09:36:11.883Z,90.52
2017-12-27T09:37:11.873Z,90.71
2017-12-27T09:38:11.869Z,90.33
2017-12-27T09:39:11.855Z,92.90
2017-12-27T09:40:11.844Z,91.28
2017-12-27T09:41:11.836Z,90.33
2017-12-27T09:42:11.823Z,90.90
2017-12-27T09:43:11.819Z,90.62
2017-12-27T09:44:11.804Z,89.86
2017-12-27T09:45:11.796Z,91.38
2017-12-27T09:46:11.783Z,90.05
2017-12-27T09:47:11.773Z,90.62
2017-12-27T09:48:11.760Z,93.46
2017-12-27T09:49:11.749Z,91.19
2017-12-27T09:50:11.739Z,90.62
2017-12-27T09:51:11.728Z,90.24
2017-12-27T09:52:11.720Z,89.86
2017-12-27T09:53:11.708Z,89.86
2017-12-27T09:54:11.698Z,90.52
2017-12-27T09:55:11.688Z,89.95
2017-12-27T09:56:11.674Z,90.81
2017-12-27T09:57:11.667Z,90.52
2017-12-27T09:58:11.657Z,91.09
2017-12-27T09:59:11.648Z,90.05
2017-12-27T10:00:11.632Z,91.47
2017-12-27T10:01:11.624Z,90.52
2017-12-27T10:02:11.611Z,91.75
2017-12-27T10:03:11.601Z,91.66
2017-12-27T10:04:11.590Z,90.52
2017-12-27T10:05:11.582Z,90.71
2017-12-27T10:06:11.566Z,91.47
2017-12-27T10:07:11.558Z,93.56
2017-12-27T10:08:11.547Z,91.19
2017-12-27T10:09:11.566Z,92.52
2017-12-27T10:10:11.532Z,92.33
2017-12-27T10:11:11.522Z,93.65
2017-12-27T10:12:11.507Z,92.99
2017-12-27T10:13:11.496Z,92.61
2017-12-27T10:14:11.510Z,91.09
2017-12-27T10:15:11.477Z,91.85
2017-12-27T10:16:11.470Z,91.09
2017-12-27T10:17:11.455Z,92.52
2017-12-27T10:18:11.444Z,91.66
2017-12-27T10:19:11.433Z,92.71
2017-12-27T10:20:11.422Z,93.65
2017-12-27T10:21:11.413Z,93.56
2017-12-27T10:22:11.425Z,94.13
2017-12-27T10:23:11.392Z,90.71
2017-12-27T10:24:11.381Z,95.27
2017-12-27T10:25:11.373Z,95.46
2017-12-27T10:26:11.365Z,95.36
2017-12-27T10:27:11.349Z,93.94
2017-12-27T10:28:11.340Z,95.65
2017-12-27T10:29:11.329Z,95.55
2017-12-27T10:30:11.319Z,93.08
2017-12-27T10:31:11.309Z,95.36
2017-12-27T10:32:11.297Z,94.60
2017-12-27T10:33:11.332Z,93.60
2017-12-27T10:34:11.279Z,93.94
2017-12-27T10:35:11.262Z,93.08
2017-12-27T10:36:11.258Z,94.60
2017-12-27T10:37:11.246Z,94.23
2017-12-27T10:38:11.237Z,95.17
2017-12-27T10:39:11.229Z,93.94
2017-12-27T10:40:11.264Z,93.75
2017-12-27T10:41:11.208Z,94.42
2017-12-27T10:42:11.193Z,95.46
2017-12-27T10:43:11.182Z,93.46
2017-12-27T10:44:11.177Z,94.98
2017-12-27T10:45:11.166Z,93.27
2017-12-27T10:46:11.151Z,93.08
2017-12-27T10:47:11.136Z,94.32
2017-12-27T10:48:11.136Z,94.42
2017-12-27T10:49:11.123Z,94.79
2017-12-27T10:50:11.116Z,94.23
2017-12-27T10:51:11.100Z,91.94
2017-12-27T10:52:11.094Z,95.46
2017-12-27T10:53:11.079Z,92.52
2017-12-27T10:54:11.071Z,92.99
2017-12-27T10:55:11.054Z,91.09
2017-12-27T10:56:11.047Z,93.65
2017-12-27T10:57:11.042Z,92.80
2017-12-27T10:58:11.029Z,94.98
2017-12-27T10:59:11.015Z,93.84
2017-12-27T11:00:11.003Z,93.18
2017-12-27T11:01:10.993Z,93.46
2017-12-27T11:02:10.983Z,93.56
2017-12-27T11:03:10.978Z,92.90
2017-12-27T11:04:10.967Z,92.71
2017-12-27T11:05:10.953Z,91.75
2017-12-27T11:06:10.943Z,91.94
2017-12-27T11:07:10.928Z,92.90
2017-12-27T11:08:10.922Z,95.46
2017-12-27T11:09:10.913Z,91.38
2017-12-27T11:10:10.905Z,92.52
2017-12-27T11:11:10.904Z,92.52
2017-12-27T11:12:10.889Z,93.65
2017-12-27T11:13:10.879Z,95.07
2017-12-27T11:14:10.861Z,93.08
2017-12-27T11:15:10.884Z,92.23
2017-12-27T11:16:10.841Z,92.71
2017-12-27T11:17:10.826Z,95.27
2017-12-27T11:18:10.817Z,92.99
2017-12-27T11:19:10.803Z,93.84
2017-12-27T11:20:10.796Z,92.90
2017-12-27T11:21:10.786Z,92.04
2017-12-27T11:22:10.777Z,92.52
2017-12-27T11:23:10.765Z,91.47
2017-12-27T11:24:10.753Z,94.79
2017-12-27T11:25:10.747Z,92.61
2017-12-27T11:26:10.734Z,92.90
2017-12-27T11:27:10.721Z,92.61
2017-12-27T11:28:10.713Z,93.65
2017-12-27T11:29:10.704Z,93.46
2017-12-27T11:30:10.697Z,92.75
2017-12-27T11:31:10.679Z,92.42
2017-12-27T11:32:10.673Z,93.51
2017-12-27T11:33:10.663Z,91.80
2017-12-27T11:34:10.655Z,91.75
2017-12-27T11:35:10.649Z,92.71
2017-12-27T11:36:10.629Z,90.81
2017-12-27T11:37:10.623Z,91.56
2017-12-27T11:38:10.610Z,93.60
2017-12-27T11:39:10.600Z,90.52
2017-12-27T11:40:10.589Z,92.14
2017-12-27T11:41:10.579Z,91.66
2017-12-27T11:42:10.585Z,93.08
2017-12-27T11:43:10.560Z,90.81
2017-12-27T11:44:10.559Z,92.71
2017-12-27T11:45:10.538Z,90.47
2017-12-27T11:46:10.527Z,90.24
2017-12-27T11:47:10.528Z,90.85
2017-12-27T11:48:10.507Z,91.28
2017-12-27T11:49:10.518Z,91.47
2017-12-27T11:50:10.486Z,90.43
2017-12-27T11:51:10.480Z,90.38
2017-12-27T11:52:10.465Z,92.52
2017-12-27T11:53:10.457Z,89.76
2017-12-27T11:54:10.444Z,90.24
2017-12-27T11:55:10.440Z,90.05
2017-12-27T11:56:10.430Z,89.86
2017-12-27T11:57:10.412Z,90.14
2017-12-27T11:58:10.480Z,88.24
2017-12-27T11:59:10.392Z,91.00
2017-12-27T12:00:10.390Z,88.53
2017-12-27T12:01:10.375Z,90.90
2017-12-27T12:02:10.364Z,90.24
2017-12-27T12:03:10.355Z,89.39
2017-12-27T12:04:10.338Z,89.67
2017-12-27T12:05:10.338Z,89.86
2017-12-27T12:06:10.326Z,89.95
2017-12-27T12:07:10.314Z,89.29
2017-12-27T12:08:10.310Z,88.81
2017-12-27T12:09:10.296Z,88.81
2017-12-27T12:10:10.282Z,88.81
2017-12-27T12:11:10.273Z,88.34
2017-12-27T12:12:10.261Z,87.68
2017-12-27T12:13:10.253Z,88.06
2017-12-27T12:14:10.246Z,87.68
2017-12-27T12:15:10.235Z,89.39
2017-12-27T12:16:10.222Z,90.05
2017-12-27T12:17:10.213Z,88.62
2017-12-27T12:18:10.203Z,89.29
2017-12-27T12:19:10.191Z,88.43
2017-12-27T12:20:10.193Z,89.00
2017-12-27T12:21:10.172Z,89.10
2017-12-27T12:22:10.162Z,87.30
2017-12-27T12:23:10.152Z,87.39
2017-12-27T12:24:10.139Z,89.67
2017-12-27T12:25:10.148Z,90.81
2017-12-27T12:26:10.123Z,87.58
2017-12-27T12:27:10.108Z,90.81
2017-12-27T12:28:10.102Z,90.71
2017-12-27T12:29:10.089Z,89.90
2017-12-27T12:30:10.081Z,88.62
2017-12-27T12:31:10.073Z,90.66
2017-12-27T12:32:10.060Z,88.67
2017-12-27T12:33:10.052Z,88.43
2017-12-27T12:34:10.042Z,89.00
2017-12-27T12:35:10.040Z,87.77
2017-12-27T12:36:10.021Z,87.58
2017-12-27T12:37:10.008Z,87.77
2017-12-27T12:38:10.000Z,89.20
2017-12-27T12:39:09.989Z,88.24
2017-12-27T12:40:10.017Z,88.43
2017-12-27T12:41:09.969Z,90.24
2017-12-27T12:42:09.961Z,90.62
2017-12-27T12:43:09.949Z,88.34
2017-12-27T12:44:09.940Z,87.77
2017-12-27T12:45:09.929Z,88.43
2017-12-27T12:46:09.921Z,86.72
2017-12-27T12:47:09.912Z,88.43
2017-12-27T12:48:09.901Z,88.34
2017-12-27T12:49:09.894Z,88.91
2017-12-27T12:50:09.879Z,88.43
2017-12-27T12:51:09.869Z,87.77
2017-12-27T12:52:09.862Z,88.06
2017-12-27T12:53:09.876Z,89.10
2017-12-27T12:54:09.838Z,89.86
2017-12-27T12:55:09.828Z,89.76
2017-12-27T12:56:09.819Z,89.10
2017-12-27T12:57:09.810Z,89.95
2017-12-27T12:58:09.796Z,87.68
2017-12-27T12:59:09.787Z,91.61